createdAt,value
2023-02-17T07:12:09.728Z,9.365925
2023-02-17T07:13:09.805Z,9.365902
2023-02-17T07:14:09.729Z,9.365976
2023-02-17T07:15:12.327Z,9.365960
2023-02-17T07:16:10.853Z,9.365981
2023-02-17T07:17:09.716Z,9.366017
2023-02-17T07:18:09.680Z,9.366017
2023-02-17T07:19:09.669Z,9.366017
2023-02-17T07:20:09.672Z,9.366017
2023-02-17T07:21:09.622Z,9.365848
2023-02-17T07:22:09.669Z,9.365482
2023-02-17T07:23:09.588Z,9.365290
2023-02-17T07:24:09.683Z,9.365290
2023-02-17T07:25:09.589Z,9.365290
2023-02-17T07:26:09.602Z,9.365290
2023-02-17T07:27:10.965Z,9.365290
2023-02-17T07:28:10.593Z,9.365290
2023-02-17T07:29:09.618Z,9.365587
2023-02-17T07:30:09.532Z,9.365922
2023-02-17T07:31:09.573Z,9.366054
2023-02-17T07:32:09.523Z,9.366172
2023-02-17T07:33:09.468Z,9.366172
2023-02-17T07:34:09.507Z,9.366172
2023-02-17T07:35:09.511Z,9.366172
2023-02-17T07:36:10.151Z,9.366172
2023-02-17T07:37:09.434Z,9.366172
2023-02-17T07:38:09.386Z,9.366172
2023-02-17T07:39:09.561Z,9.367324
2023-02-17T07:40:09.560Z,9.365767
2023-02-17T07:41:09.799Z,9.365893
2023-02-17T07:42:09.385Z,9.366114
2023-02-17T07:43:09.348Z,9.365766
2023-02-17T07:44:09.459Z,9.365752
2023-02-17T07:45:09.387Z,9.365518
2023-02-17T07:46:09.849Z,9.365685
2023-02-17T07:47:09.302Z,9.365712
2023-02-17T07:48:09.340Z,9.365740
2023-02-17T07:49:09.274Z,9.365785
2023-02-17T07:50:09.341Z,9.365785
2023-02-17T07:51:09.331Z,9.365845
2023-02-17T07:52:09.248Z,9.365845
2023-02-17T07:53:09.236Z,9.365845
2023-02-17T07:54:09.239Z,9.365845
2023-02-17T07:55:09.203Z,9.365845
2023-02-17T07:56:09.273Z,9.365845
2023-02-17T07:57:09.197Z,9.365845
2023-02-17T07:58:09.197Z,9.365845
2023-02-17T07:59:09.197Z,9.365845
2023-02-17T08:00:10.848Z,9.365845
2023-02-17T08:01:10.236Z,9.365845
2023-02-17T08:02:09.211Z,9.365845
2023-02-17T08:03:09.132Z,9.365845
2023-02-17T08:04:09.119Z,9.365845
2023-02-17T08:05:09.149Z,9.365845
2023-02-17T08:06:09.075Z,9.365845
2023-02-17T08:07:09.072Z,9.365845
2023-02-17T08:08:09.111Z,9.365845
2023-02-17T08:09:09.027Z,9.365845
2023-02-17T08:10:09.073Z,9.365845
2023-02-17T08:11:09.314Z,9.365845
2023-02-17T08:12:09.011Z,9.365958
2023-02-17T08:13:09.020Z,9.366185
2023-02-17T08:14:08.996Z,9.365907
2023-02-17T08:15:08.946Z,9.365801
2023-02-17T08:16:09.373Z,9.365861
2023-02-17T08:17:08.990Z,9.365860
2023-02-17T08:18:08.939Z,9.365860
2023-02-17T08:19:08.982Z,9.365860
2023-02-17T08:20:09.426Z,9.365860
2023-02-17T08:21:08.963Z,9.365860
2023-02-17T08:22:08.957Z,9.365860
2023-02-17T08:23:08.879Z,9.365860
2023-02-17T08:24:08.928Z,9.365860
2023-02-17T08:25:08.924Z,9.365860
2023-02-17T08:26:09.140Z,9.365860
2023-02-17T08:27:08.862Z,9.365860
2023-02-17T08:28:08.894Z,9.365860
2023-02-17T08:29:08.833Z,9.365860
2023-02-17T08:30:08.852Z,9.365860
2023-02-17T08:31:08.995Z,9.365860
2023-02-17T08:32:08.904Z,9.365860
2023-02-17T08:33:08.923Z,9.365860
2023-02-17T08:34:08.738Z,9.365860
2023-02-17T08:35:08.781Z,9.365860
2023-02-17T08:36:08.817Z,9.365860
2023-02-17T08:37:08.709Z,9.365860
2023-02-17T08:38:08.798Z,9.365892
2023-02-17T08:39:08.745Z,9.365789
2023-02-17T08:40:08.674Z,9.365909
2023-02-17T08:41:08.714Z,9.365895
2023-02-17T08:42:08.688Z,9.365912
2023-02-17T08:43:08.667Z,9.365998
2023-02-17T08:44:08.716Z,9.365950
2023-02-17T08:45:08.635Z,9.365940
2023-02-17T08:46:08.881Z,9.365943
2023-02-17T08:47:08.617Z,9.365941
2023-02-17T08:48:09.362Z,9.365935
2023-02-17T08:49:08.653Z,9.365954
2023-02-17T08:50:08.572Z,9.366034
2023-02-17T08:51:08.577Z,9.366068
2023-02-17T08:52:08.672Z,9.366038
2023-02-17T08:53:08.671Z,9.365953
2023-02-17T08:54:08.584Z,9.365927
2023-02-17T08:55:08.632Z,9.365959
2023-02-17T08:56:08.758Z,9.366028
2023-02-17T08:57:08.523Z,9.365902
2023-02-17T08:58:08.588Z,9.365807
2023-02-17T08:59:08.517Z,9.365952
2023-02-17T09:00:08.608Z,9.365972
2023-02-17T09:01:08.526Z,9.366037
2023-02-17T09:02:08.448Z,9.365971
2023-02-17T09:03:08.434Z,9.365966
2023-02-17T09:04:09.474Z,9.365870
2023-02-17T09:05:08.681Z,9.365903
2023-02-17T09:06:08.648Z,9.365964
2023-02-17T09:07:08.439Z,9.365830
2023-02-17T09:08:08.366Z,9.365727
2023-02-17T09:09:08.342Z,9.365762
2023-02-17T09:10:08.371Z,9.366006
2023-02-17T09:11:09.614Z,9.366003
2023-02-17T09:12:08.345Z,9.366003
2023-02-17T09:13:08.316Z,9.366003
2023-02-17T09:14:08.284Z,9.366003
2023-02-17T09:15:08.270Z,9.366003
2023-02-17T09:16:08.775Z,9.366003
2023-02-17T09:17:08.235Z,9.366003
2023-02-17T09:18:08.258Z,9.366003
2023-02-17T09:19:08.218Z,9.366003
2023-02-17T09:20:19.529Z,9.366003
2023-02-17T09:21:09.296Z,9.366003
2023-02-17T09:22:08.189Z,9.366003
2023-02-17T09:23:08.166Z,9.366003
2023-02-17T09:24:08.153Z,9.366003
2023-02-17T09:25:08.236Z,9.366003
2023-02-17T09:26:08.824Z,9.366003
2023-02-17T09:27:08.227Z,9.366003
2023-02-17T09:28:08.130Z,9.366003
2023-02-17T09:29:08.163Z,9.366003
2023-02-17T09:30:08.130Z,9.366030
2023-02-17T09:31:08.153Z,9.365999
2023-02-17T09:32:08.254Z,9.365895
2023-02-17T09:33:08.211Z,9.365891
2023-02-17T09:34:08.050Z,9.365802
2023-02-17T09:35:08.300Z,9.365919
2023-02-17T09:36:08.378Z,9.365970
2023-02-17T09:37:08.183Z,9.365932
2023-02-17T09:38:08.024Z,9.366014
2023-02-17T09:39:08.003Z,9.366091
2023-02-17T09:40:08.073Z,9.365906
2023-02-17T09:41:07.954Z,9.365895
2023-02-17T09:42:07.995Z,9.365953
2023-02-17T09:43:08.006Z,9.365888
2023-02-17T09:44:07.999Z,9.365962
2023-02-17T09:45:07.957Z,9.366061
2023-02-17T09:46:08.416Z,9.366081
2023-02-17T09:47:07.970Z,9.366064
2023-02-17T09:48:07.921Z,9.365993
2023-02-17T09:49:07.892Z,9.366007
2023-02-17T09:50:07.938Z,9.365963
2023-02-17T09:51:07.838Z,9.365962
2023-02-17T09:52:07.844Z,9.365976
2023-02-17T09:53:07.929Z,9.365942
2023-02-17T09:54:07.884Z,9.365988
2023-02-17T09:55:07.795Z,9.366046
2023-02-17T09:56:08.169Z,9.366027
2023-02-17T09:57:07.896Z,9.366025
2023-02-17T09:58:08.002Z,9.365955
2023-02-17T09:59:07.802Z,9.365920
2023-02-17T10:00:07.746Z,9.365942
2023-02-17T10:01:07.862Z,9.365944
2023-02-17T10:02:07.720Z,9.365946
2023-02-17T10:03:07.735Z,9.365974
2023-02-17T10:04:07.772Z,9.365945
2023-02-17T10:05:07.804Z,9.365974
2023-02-17T10:06:08.908Z,9.365973
2023-02-17T10:07:07.698Z,9.365943
2023-02-17T10:08:07.683Z,9.365949
2023-02-17T10:09:07.753Z,9.365946
2023-02-17T10:10:07.667Z,9.365994
2023-02-17T10:11:07.668Z,9.365975
2023-02-17T10:12:07.646Z,9.365992
2023-02-17T10:13:07.576Z,9.365971
2023-02-17T10:14:07.777Z,9.365931
2023-02-17T10:15:07.566Z,9.365937
2023-02-17T10:16:07.958Z,9.365928
2023-02-17T10:17:07.547Z,9.365893
2023-02-17T10:18:07.609Z,9.365898
2023-02-17T10:19:07.540Z,9.365968
2023-02-17T10:20:07.590Z,9.366015
2023-02-17T10:21:08.189Z,9.366034
2023-02-17T10:22:07.570Z,9.365994
2023-02-17T10:23:07.524Z,9.366010
2023-02-17T10:24:07.473Z,9.365986
2023-02-17T10:25:07.479Z,9.365967
2023-02-17T10:26:07.775Z,9.365995
2023-02-17T10:27:07.414Z,9.365946
2023-02-17T10:28:07.518Z,9.365932
2023-02-17T10:29:07.425Z,9.365954
2023-02-17T10:30:08.025Z,9.365944
2023-02-17T10:31:07.493Z,9.365845
2023-02-17T10:32:07.501Z,9.366007
2023-02-17T10:33:07.346Z,9.366027
2023-02-17T10:34:07.359Z,9.365987
2023-02-17T10:35:07.383Z,9.365980
2023-02-17T10:36:07.580Z,9.365987
2023-02-17T10:37:07.421Z,9.365999
2023-02-17T10:38:07.402Z,9.366010
2023-02-17T10:39:07.284Z,9.365946
2023-02-17T10:40:07.306Z,9.366003
2023-02-17T10:41:07.286Z,9.366030
2023-02-17T10:42:07.283Z,9.365903
2023-02-17T10:43:07.956Z,9.365900
2023-02-17T10:44:07.246Z,9.365850
2023-02-17T10:45:07.234Z,9.365964
2023-02-17T10:46:07.523Z,9.366007
2023-02-17T10:47:07.186Z,9.366333
2023-02-17T10:48:07.847Z,9.366023
2023-02-17T10:49:07.439Z,9.366061
2023-02-17T10:50:07.281Z,9.365926
2023-02-17T10:51:07.261Z,9.365808
2023-02-17T10:52:08.009Z,9.365909
2023-02-17T10:53:07.816Z,9.365964
2023-02-17T10:54:07.302Z,9.365932
2023-02-17T10:55:21.926Z,9.365971
2023-02-17T10:56:09.973Z,9.365899
2023-02-17T10:57:07.264Z,9.366010
2023-02-17T10:58:07.172Z,9.365908
2023-02-17T10:59:07.183Z,9.365904
2023-02-17T11:00:07.081Z,9.365993
2023-02-17T11:01:07.082Z,9.366099
2023-02-17T11:02:07.199Z,9.366019
2023-02-17T11:03:07.040Z,9.365964
2023-02-17T11:04:07.099Z,9.366001
2023-02-17T11:05:07.062Z,9.366095
2023-02-17T11:06:07.388Z,9.365983
2023-02-17T11:07:07.028Z,9.366006
2023-02-17T11:08:07.039Z,9.365994
2023-02-17T11:09:06.979Z,9.366141
2023-02-17T11:10:07.021Z,9.366055
2023-02-17T11:11:06.985Z,9.365982
2023-02-17T11:12:06.990Z,9.365906
2023-02-17T11:13:06.935Z,9.365996
